createdAt,value
2023-05-11T00:01:37.707Z,14.9
2023-05-11T00:03:45.588Z,14.9
2023-05-11T00:05:53.122Z,14.9
2023-05-11T00:08:00.715Z,14.9
2023-05-11T00:10:09.478Z,14.9
2023-05-11T00:12:17.961Z,14.8
2023-05-11T00:14:27.462Z,14.8
2023-05-11T00:16:35.156Z,14.9
2023-05-11T00:18:43.054Z,14.8
2023-05-11T00:20:50.543Z,14.9
2023-05-11T00:22:58.052Z,14.8
2023-05-11T00:25:06.472Z,14.8
2023-05-11T00:27:14.090Z,14.8
2023-05-11T00:29:21.607Z,14.8
2023-05-11T00:31:30.912Z,14.7
2023-05-11T00:33:38.693Z,14.7
2023-05-11T00:35:48.757Z,14.7
2023-05-11T00:37:56.754Z,14.7
2023-05-11T00:40:05.159Z,14.6
2023-05-11T00:42:12.749Z,14.6
2023-05-11T00:44:20.528Z,14.6
2023-05-11T00:46:29.613Z,14.6
2023-05-11T00:48:37.423Z,14.5
2023-05-11T00:50:45.643Z,14.5
2023-05-11T00:52:53.393Z,14.5
2023-05-11T00:55:01.166Z,14.4
2023-05-11T00:57:09.352Z,14.4
2023-05-11T00:59:17.182Z,14.4
2023-05-11T01:01:24.820Z,14.4
2023-05-11T01:03:40.333Z,14.4
2023-05-11T01:06:12.264Z,14.4
2023-05-11T01:08:25.627Z,14.4
2023-05-11T01:10:38.332Z,14.4
2023-05-11T01:12:54.136Z,14.4
2023-05-11T01:15:07.308Z,14.3
2023-05-11T01:17:24.289Z,14.3
2023-05-11T01:19:44.028Z,14.3
2023-05-11T01:21:52.319Z,14.3
2023-05-11T01:24:19.764Z,14.3
2023-05-11T01:27:00.153Z,14.3
2023-05-11T01:29:47.697Z,14.3
2023-05-11T01:31:58.780Z,14.3
2023-05-11T01:34:11.022Z,14.2
2023-05-11T01:36:21.739Z,14.2
2023-05-11T01:38:33.783Z,14.2
2023-05-11T01:40:43.973Z,14.2
2023-05-11T01:42:59.420Z,14.2
2023-05-11T01:45:08.938Z,14.2
2023-05-11T01:47:19.313Z,14.2
2023-05-11T01:49:28.487Z,14.1
2023-05-11T01:51:38.233Z,14.1
2023-05-11T01:53:47.110Z,14.1
2023-05-11T01:55:56.305Z,14.1
2023-05-11T01:58:06.216Z,14.1
2023-05-11T02:00:16.671Z,14.1
2023-05-11T02:02:27.275Z,14
2023-05-11T02:04:38.226Z,14
2023-05-11T02:06:47.664Z,13.9
2023-05-11T02:08:56.658Z,13.9
2023-05-11T02:11:07.719Z,13.9
2023-05-11T02:13:18.280Z,13.9
2023-05-11T02:15:27.112Z,13.9
2023-05-11T02:17:40.416Z,13.9
2023-05-11T02:19:49.210Z,13.9
2023-05-11T02:21:57.651Z,13.9
2023-05-11T02:24:07.273Z,13.9
2023-05-11T02:26:16.560Z,13.9
2023-05-11T02:28:24.389Z,13.9
2023-05-11T02:30:33.542Z,13.9
2023-05-11T02:32:49.393Z,13.9
2023-05-11T02:35:10.987Z,13.9
2023-05-11T02:37:24.428Z,13.9
2023-05-11T02:39:37.032Z,13.9
2023-05-11T02:41:47.191Z,13.9
2023-05-11T02:43:56.772Z,13.8
2023-05-11T02:46:09.574Z,13.8
2023-05-11T02:48:25.072Z,13.8
2023-05-11T02:50:36.882Z,13.8
2023-05-11T02:52:47.990Z,13.8
2023-05-11T02:54:57.685Z,13.8
2023-05-11T02:57:05.568Z,13.8
2023-05-11T02:59:13.801Z,13.7
2023-05-11T03:01:22.432Z,13.7
2023-05-11T03:03:32.131Z,13.8
2023-05-11T03:05:39.718Z,13.7
2023-05-11T03:07:47.357Z,13.7
2023-05-11T03:09:55.429Z,13.7
2023-05-11T03:12:04.069Z,13.7
2023-05-11T03:14:11.908Z,13.7
2023-05-11T03:16:21.474Z,13.7
2023-05-11T03:18:31.048Z,13.7
2023-05-11T03:20:41.432Z,13.8
2023-05-11T03:22:50.127Z,13.7
2023-05-11T03:24:57.962Z,13.7
2023-05-11T03:27:06.727Z,13.7
2023-05-11T03:29:15.944Z,13.7
2023-05-11T03:31:23.831Z,13.7
2023-05-11T03:33:32.958Z,13.7
2023-05-11T03:35:42.568Z,13.7
2023-05-11T03:37:51.467Z,13.7
2023-05-11T03:40:00.614Z,13.7
2023-05-11T03:42:09.455Z,13.7
2023-05-11T03:44:20.384Z,13.7
2023-05-11T03:46:29.768Z,13.7
2023-05-11T03:48:40.472Z,13.7
2023-05-11T03:50:48.634Z,13.7
2023-05-11T03:52:56.747Z,13.7
2023-05-11T03:55:05.036Z,13.7
2023-05-11T03:57:14.374Z,13.7
2023-05-11T03:59:23.134Z,13.7
2023-05-11T04:01:31.557Z,13.7
2023-05-11T04:03:50.225Z,13.7
2023-05-11T04:05:57.936Z,13.7
2023-05-11T04:08:06.621Z,13.7
2023-05-11T04:10:14.374Z,13.7
2023-05-11T04:12:22.159Z,13.7
2023-05-11T04:14:29.828Z,13.6
2023-05-11T04:16:37.481Z,13.7
2023-05-11T04:18:45.053Z,13.7
2023-05-11T04:20:54.052Z,13.7
2023-05-11T04:23:01.810Z,13.7
2023-05-11T04:25:10.140Z,13.7
2023-05-11T04:27:17.780Z,13.7
2023-05-11T04:29:25.885Z,13.8
2023-05-11T04:31:33.717Z,13.8
2023-05-11T04:33:46.848Z,13.7
2023-05-11T04:35:58.428Z,13.7
2023-05-11T04:38:07.236Z,13.8
2023-05-11T04:40:15.348Z,13.8
2023-05-11T04:42:22.930Z,13.8
2023-05-11T04:44:30.476Z,13.8
2023-05-11T04:46:39.215Z,13.9
2023-05-11T04:48:47.130Z,13.9
2023-05-11T04:50:56.830Z,13.9
2023-05-11T04:53:04.423Z,13.9
2023-05-11T04:55:12.402Z,13.9
2023-05-11T04:57:19.956Z,13.9
2023-05-11T04:59:27.575Z,13.9
2023-05-11T05:01:44.343Z,13.9
2023-05-11T05:03:51.888Z,14
2023-05-11T05:06:00.811Z,14
2023-05-11T05:08:08.391Z,14
2023-05-11T05:10:16.143Z,14
2023-05-11T05:12:23.937Z,14
2023-05-11T05:14:31.987Z,14
2023-05-11T05:16:39.575Z,14
2023-05-11T05:18:47.350Z,14
2023-05-11T05:20:54.921Z,14
2023-05-11T05:23:03.950Z,14.1
2023-05-11T05:25:11.742Z,14
2023-05-11T05:27:19.293Z,14
2023-05-11T05:29:26.898Z,14.1
2023-05-11T05:31:34.591Z,14.1
2023-05-11T05:33:42.256Z,14.1
2023-05-11T05:35:50.025Z,14.2
2023-05-11T05:37:57.581Z,14.2
2023-05-11T05:40:09.832Z,14.2
2023-05-11T05:42:17.370Z,14.3
2023-05-11T05:44:25.144Z,14.3
2023-05-11T05:46:33.215Z,14.4
2023-05-11T05:48:46.897Z,14.3
2023-05-11T05:50:55.949Z,14.3
2023-05-11T05:53:03.630Z,14.4
2023-05-11T05:55:13.250Z,14.4
2023-05-11T05:57:20.777Z,14.5
2023-05-11T05:59:28.300Z,14.5
2023-05-11T06:01:37.183Z,14.6
2023-05-11T06:03:45.900Z,14.6
2023-05-11T06:05:53.641Z,14.6
2023-05-11T06:08:09.646Z,14.5
2023-05-11T06:10:20.947Z,14.5
2023-05-11T06:12:28.595Z,14.5
2023-05-11T06:14:36.209Z,14.5
2023-05-11T06:16:43.750Z,14.5
2023-05-11T06:18:51.602Z,14.5
2023-05-11T06:21:00.037Z,14.5
2023-05-11T06:23:07.690Z,14.6
2023-05-11T06:25:16.127Z,14.6
2023-05-11T06:27:25.162Z,14.6
2023-05-11T06:29:32.819Z,14.6
2023-05-11T06:31:40.471Z,14.7
2023-05-11T06:33:48.056Z,14.6
2023-05-11T06:35:55.522Z,14.6
2023-05-11T06:38:03.270Z,14.6
2023-05-11T06:40:11.222Z,14.7
2023-05-11T06:42:18.733Z,14.7
2023-05-11T06:44:27.853Z,14.7
2023-05-11T06:46:35.828Z,14.7
2023-05-11T06:48:43.438Z,14.8
2023-05-11T06:50:51.024Z,14.8
2023-05-11T06:52:58.690Z,14.8
2023-05-11T06:55:07.304Z,14.8
2023-05-11T06:57:14.866Z,14.8
2023-05-11T06:59:22.403Z,14.8
2023-05-11T07:01:32.066Z,14.9
2023-05-11T07:03:40.157Z,14.9
2023-05-11T07:05:48.371Z,14.9
2023-05-11T07:07:56.123Z,15
2023-05-11T07:10:03.707Z,15
2023-05-11T07:12:11.922Z,15.1
2023-05-11T07:14:19.647Z,15.1
2023-05-11T07:16:27.235Z,15.2
2023-05-11T07:18:36.338Z,15.2
2023-05-11T07:20:46.502Z,15.1
2023-05-11T07:22:57.367Z,15.2
2023-05-11T07:25:05.316Z,15.2
2023-05-11T07:27:12.875Z,15.3
2023-05-11T07:29:20.770Z,15.3
2023-05-11T07:31:29.822Z,15.3
2023-05-11T07:33:40.431Z,15.3
2023-05-11T07:35:47.979Z,15.3
2023-05-11T07:37:55.664Z,15.3
2023-05-11T07:40:03.353Z,15.3
2023-05-11T07:42:10.861Z,15.3
2023-05-11T07:44:18.845Z,15.4
2023-05-11T07:46:26.526Z,15.4
2023-05-11T07:48:34.226Z,15.4
2023-05-11T07:50:43.271Z,15.5
2023-05-11T07:52:50.779Z,15.5
2023-05-11T07:54:58.399Z,15.5
2023-05-11T07:57:06.592Z,15.5
2023-05-11T07:59:14.126Z,15.5
2023-05-11T08:01:22.014Z,15.5
2023-05-11T08:03:29.698Z,15.5
2023-05-11T08:05:37.612Z,15.4
2023-05-11T08:07:47.026Z,15.4
2023-05-11T08:09:54.653Z,15.4
2023-05-11T08:12:02.476Z,15.4
2023-05-11T08:14:10.056Z,15.4
2023-05-11T08:16:17.993Z,15.4
2023-05-11T08:18:27.408Z,15.4
2023-05-11T08:20:35.038Z,15.4
2023-05-11T08:22:42.589Z,15.5
2023-05-11T08:24:51.884Z,15.5
2023-05-11T08:26:59.469Z,15.5
2023-05-11T08:29:06.995Z,15.5
2023-05-11T08:31:14.697Z,15.5
2023-05-11T08:33:36.372Z,15.4
2023-05-11T08:35:45.269Z,15.5
2023-05-11T08:37:52.826Z,15.4
2023-05-11T08:40:01.974Z,15.4
2023-05-11T08:42:13.539Z,15.4
2023-05-11T08:44:22.390Z,15.4
2023-05-11T08:46:31.304Z,15.4
2023-05-11T08:48:39.176Z,15.5
2023-05-11T08:50:46.821Z,15.6
2023-05-11T08:52:54.368Z,15.7
2023-05-11T08:55:03.300Z,15.7
2023-05-11T08:57:11.509Z,15.8
2023-05-11T08:59:20.827Z,15.7
2023-05-11T09:01:30.227Z,15.7
2023-05-11T09:03:39.495Z,15.7
2023-05-11T09:05:48.396Z,15.7
2023-05-11T09:08:00.381Z,15.8
2023-05-11T09:10:11.531Z,15.9
2023-05-11T09:12:25.830Z,16
2023-05-11T09:14:33.438Z,16.1
2023-05-11T09:16:41.238Z,16.1
2023-05-11T09:18:49.788Z,16.1
2023-05-11T09:20:57.409Z,16.2
2023-05-11T09:23:05.019Z,16.3
2023-05-11T09:25:16.707Z,16.3
2023-05-11T09:27:25.823Z,16.4
2023-05-11T09:29:33.422Z,16.4
2023-05-11T09:31:42.484Z,16.5
2023-05-11T09:33:50.202Z,16.5
2023-05-11T09:35:59.302Z,16.5
2023-05-11T09:38:08.886Z,16.5
2023-05-11T09:40:27.147Z,16.5
2023-05-11T09:42:36.356Z,16.5
2023-05-11T09:44:45.981Z,16.6
2023-05-11T09:46:53.691Z,16.6
2023-05-11T09:49:01.472Z,16.6
2023-05-11T09:51:09.212Z,16.7
2023-05-11T09:53:17.174Z,16.8
2023-05-11T09:55:26.396Z,16.9
2023-05-11T09:57:34.265Z,16.9
2023-05-11T09:59:42.997Z,17
2023-05-11T10:01:51.366Z,17.1
2023-05-11T10:04:20.949Z,17.1
2023-05-11T10:06:46.648Z,17.2
2023-05-11T10:08:55.344Z,17.3
2023-05-11T10:11:06.304Z,17.4
2023-05-11T10:13:14.162Z,17.4
2023-05-11T10:15:25.240Z,17.6
2023-05-11T10:17:34.705Z,17.8
2023-05-11T10:19:42.532Z,17.9
2023-05-11T10:21:51.995Z,18.1
2023-05-11T10:23:59.802Z,18.3
2023-05-11T10:26:09.800Z,18.5
2023-05-11T10:28:17.667Z,18.7
2023-05-11T10:30:25.423Z,18.8
2023-05-11T10:32:37.000Z,18.9
2023-05-11T10:34:46.087Z,18.9
2023-05-11T10:36:54.028Z,18.9
2023-05-11T10:39:01.550Z,19.2
2023-05-11T10:41:26.269Z,19.5
2023-05-11T10:43:51.428Z,19.7
2023-05-11T10:46:09.751Z,19.8
2023-05-11T10:48:52.310Z,19.9
2023-05-11T10:51:21.392Z,20
2023-05-11T10:53:50.861Z,20.2
2023-05-11T10:56:14.248Z,20.4
2023-05-11T10:58:41.890Z,21
2023-05-11T11:01:24.719Z,21.3
2023-05-11T11:03:32.304Z,21.1
2023-05-11T11:05:40.604Z,21.1
2023-05-11T11:07:58.372Z,21.3
2023-05-11T11:10:07.139Z,21.6
2023-05-11T11:12:15.681Z,21.6
2023-05-11T11:14:26.114Z,21.7
2023-05-11T11:16:34.392Z,21.9
2023-05-11T11:18:42.103Z,22.2
2023-05-11T11:20:51.920Z,22.4
2023-05-11T11:22:59.452Z,22.6
2023-05-11T11:25:08.603Z,22.7
2023-05-11T11:27:16.360Z,22.7
2023-05-11T11:29:25.308Z,22.9
2023-05-11T11:31:34.118Z,22.9
2023-05-11T11:33:41.657Z,22.8
2023-05-11T11:35:49.402Z,23
2023-05-11T11:38:04.012Z,23.3
2023-05-11T11:40:15.105Z,23.5
2023-05-11T11:42:37.896Z,23.6
2023-05-11T11:44:48.093Z,23.5
2023-05-11T11:47:11.006Z,23.5
2023-05-11T11:49:29.030Z,23.7
2023-05-11T11:51:39.745Z,24
2023-05-11T11:54:17.684Z,24
2023-05-11T11:56:39.760Z,24
2023-05-11T11:59:00.590Z,24
2023-05-11T12:01:10.251Z,24
2023-05-11T12:03:23.657Z,24.3
2023-05-11T12:05:34.352Z,24.5
2023-05-11T12:07:43.626Z,24.4
2023-05-11T12:09:52.439Z,23.8
2023-05-11T12:12:01.990Z,23.6
2023-05-11T12:14:11.412Z,23.4
2023-05-11T12:16:20.753Z,23.4
2023-05-11T12:18:28.475Z,23.5
2023-05-11T12:20:36.195Z,23.5
2023-05-11T12:22:46.652Z,23.5
2023-05-11T12:24:58.247Z,23.4
2023-05-11T12:27:08.433Z,23.3
2023-05-11T12:29:16.449Z,23.2
2023-05-11T12:31:26.927Z,23.3
2023-05-11T12:33:34.525Z,23.5
2023-05-11T12:35:44.430Z,23.6
2023-05-11T12:37:52.422Z,23.8
2023-05-11T12:40:00.783Z,24
2023-05-11T12:42:08.720Z,24
2023-05-11T12:44:18.104Z,23.8
2023-05-11T12:46:27.234Z,23.6
2023-05-11T12:48:35.902Z,23.7
2023-05-11T12:50:45.026Z,23.5
2023-05-11T12:52:52.979Z,23.4
2023-05-11T12:55:01.007Z,23.5
2023-05-11T12:57:22.537Z,23.7
2023-05-11T12:59:32.938Z,23.7
2023-05-11T13:01:42.164Z,23.8
2023-05-11T13:03:51.098Z,23.9
2023-05-11T13:06:06.335Z,23.8
2023-05-11T13:08:16.241Z,23.8
2023-05-11T13:10:25.224Z,23.8
2023-05-11T13:12:33.968Z,23.8
2023-05-11T13:14:41.519Z,23.7
2023-05-11T13:16:55.495Z,23.6
2023-05-11T13:19:04.937Z,23.5
2023-05-11T13:21:12.473Z,23.4
2023-05-11T13:23:22.861Z,23.5
2023-05-11T13:25:30.395Z,23.6
2023-05-11T13:27:38.562Z,23.8
2023-05-11T13:29:46.005Z,24
2023-05-11T13:31:55.288Z,24
2023-05-11T13:34:04.153Z,24.1
2023-05-11T13:36:11.981Z,24.1
2023-05-11T13:38:19.474Z,24.2
2023-05-11T13:40:27.377Z,24.3
2023-05-11T13:42:34.953Z,24.2
2023-05-11T13:44:42.623Z,24.3
2023-05-11T13:46:50.272Z,24.3
2023-05-11T13:48:59.948Z,24.2
2023-05-11T13:51:07.779Z,23.9
2023-05-11T13:53:15.334Z,23.6
2023-05-11T13:55:22.892Z,23.5
2023-05-11T13:57:30.509Z,23.8
2023-05-11T13:59:38.051Z,24
2023-05-11T14:01:45.659Z,23.9
2023-05-11T14:03:58.399Z,23.7
2023-05-11T14:06:06.773Z,23.6
2023-05-11T14:08:14.246Z,23.8
2023-05-11T14:10:21.844Z,24
2023-05-11T14:12:29.421Z,23.8
2023-05-11T14:14:37.041Z,23.8
2023-05-11T14:16:44.982Z,24.1
2023-05-11T14:18:52.696Z,24.4
2023-05-11T14:21:01.579Z,24.4
2023-05-11T14:23:09.212Z,24.5
2023-05-11T14:25:17.124Z,24.5
2023-05-11T14:27:25.322Z,24.6
2023-05-11T14:29:33.033Z,24.6
2023-05-11T14:31:40.974Z,24.5
2023-05-11T14:33:48.522Z,24.5
2023-05-11T14:35:56.116Z,24.6
2023-05-11T14:38:05.200Z,24.8
2023-05-11T14:40:13.365Z,24.7
2023-05-11T14:42:21.162Z,24.5
2023-05-11T14:44:28.666Z,24.6
2023-05-11T14:46:36.465Z,24.7
2023-05-11T14:48:44.052Z,24.8
2023-05-11T14:50:51.526Z,24.9
2023-05-11T14:52:59.116Z,24.8
2023-05-11T14:55:09.444Z,24.6
2023-05-11T14:57:17.215Z,24.7
2023-05-11T14:59:24.895Z,24.5
2023-05-11T15:01:32.601Z,24.3
2023-05-11T15:03:40.202Z,24.3
2023-05-11T15:05:47.821Z,24.2
2023-05-11T15:07:55.954Z,24.1
2023-05-11T15:10:05.405Z,23.9
2023-05-11T15:12:14.209Z,23.9
2023-05-11T15:14:21.808Z,23.9
2023-05-11T15:16:29.485Z,24
2023-05-11T15:18:37.906Z,23.8
2023-05-11T15:20:45.839Z,23.6
2023-05-11T15:22:53.500Z,23.4
2023-05-11T15:25:01.604Z,23.3
2023-05-11T15:27:09.149Z,23.4
2023-05-11T15:29:18.727Z,23.4
2023-05-11T15:31:26.389Z,23.4
2023-05-11T15:33:34.155Z,23.4
2023-05-11T15:35:41.768Z,23.3
2023-05-11T15:37:49.287Z,23.2
2023-05-11T15:39:56.883Z,23.2
2023-05-11T15:42:08.818Z,23.1
2023-05-11T15:44:17.734Z,23.3
2023-05-11T15:46:25.344Z,23.3
2023-05-11T15:48:33.364Z,23.4
2023-05-11T15:50:40.856Z,23.3
2023-05-11T15:52:48.342Z,23.3
2023-05-11T15:54:55.827Z,23.4
2023-05-11T15:57:03.332Z,23.5
2023-05-11T15:59:10.813Z,23.4
2023-05-11T16:01:19.836Z,23.4
2023-05-11T16:03:27.637Z,23.4
2023-05-11T16:05:35.958Z,23.4
2023-05-11T16:07:43.493Z,23.4
2023-05-11T16:09:51.114Z,23.3
2023-05-11T16:11:58.613Z,23.3
2023-05-11T16:14:11.100Z,23.2
2023-05-11T16:16:21.035Z,23
2023-05-11T16:18:28.759Z,22.9
2023-05-11T16:25:02.605Z,22.7
2023-05-11T16:27:10.166Z,22.7
2023-05-11T16:29:18.049Z,22.7
2023-05-11T16:31:25.601Z,22.7
2023-05-11T16:33:33.301Z,22.8
2023-05-11T16:35:40.922Z,22.8
2023-05-11T16:37:48.617Z,22.8
2023-05-11T16:39:56.350Z,22.8
2023-05-11T16:42:05.335Z,22.8
2023-05-11T16:44:12.813Z,22.7
2023-05-11T16:46:20.725Z,22.6
2023-05-11T16:48:28.306Z,22.6
2023-05-11T16:50:35.986Z,22.5
2023-05-11T16:52:44.001Z,22.5
2023-05-11T16:54:51.531Z,22.5
2023-05-11T16:56:59.056Z,22.5
2023-05-11T16:59:08.431Z,22.5
2023-05-11T17:01:16.531Z,22.4
2023-05-11T17:03:24.197Z,22.4
2023-05-11T17:05:31.779Z,22.4
2023-05-11T17:07:39.560Z,22.3
2023-05-11T17:09:50.616Z,22.2
2023-05-11T17:11:58.111Z,22.2
2023-05-11T17:16:22.719Z,22.1
2023-05-11T17:18:30.527Z,22.1
2023-05-11T17:20:37.996Z,22.1
2023-05-11T17:22:45.460Z,22.1
2023-05-11T17:24:55.960Z,22
2023-05-11T17:27:03.665Z,21.9
2023-05-11T17:29:11.637Z,21.9
2023-05-11T17:31:19.255Z,21.6
2023-05-11T17:33:28.473Z,21.4
2023-05-11T17:35:36.676Z,21.2
2023-05-11T17:37:44.225Z,21
2023-05-11T17:39:51.982Z,20.8
2023-05-11T17:41:59.515Z,20.6
2023-05-11T17:44:07.035Z,20.5
2023-05-11T17:46:15.817Z,20.4
2023-05-11T17:48:24.332Z,20.1
2023-05-11T17:50:33.499Z,20
2023-05-11T17:52:41.455Z,19.8
2023-05-11T17:54:49.016Z,19.7
2023-05-11T17:56:56.914Z,19.6
2023-05-11T17:59:04.552Z,19.4
2023-05-11T18:01:13.934Z,19.3
2023-05-11T18:03:21.788Z,19.2
2023-05-11T18:05:36.778Z,19.1
2023-05-11T18:07:57.848Z,19
2023-05-11T18:10:06.235Z,19
2023-05-11T18:12:13.748Z,18.9
2023-05-11T18:14:21.248Z,18.8
2023-05-11T18:16:28.864Z,18.7
2023-05-11T18:18:36.543Z,18.7
2023-05-11T18:20:45.925Z,18.6
2023-05-11T18:22:55.157Z,18.6
2023-05-11T18:25:02.861Z,18.5
2023-05-11T18:27:10.891Z,18.4
2023-05-11T18:29:21.771Z,18.3
2023-05-11T18:31:30.674Z,18.2
2023-05-11T18:33:38.167Z,18.2
2023-05-11T18:35:46.381Z,18
2023-05-11T18:37:55.223Z,17.9
2023-05-11T18:40:05.903Z,17.8
2023-05-11T18:42:13.647Z,17.7
2023-05-11T18:44:21.250Z,17.6
2023-05-11T18:46:28.775Z,17.6
2023-05-11T18:48:36.582Z,17.5
2023-05-11T18:50:44.090Z,17.4
2023-05-11T18:52:51.724Z,17.4
2023-05-11T18:55:00.653Z,17.3
2023-05-11T18:57:09.061Z,17.3
2023-05-11T18:59:16.745Z,17.2
2023-05-11T19:01:30.398Z,17.2
2023-05-11T19:03:42.191Z,17.1
2023-05-11T19:05:51.216Z,17.1
2023-05-11T19:07:58.691Z,17
2023-05-11T19:10:09.381Z,16.9
2023-05-11T19:12:19.449Z,16.8
2023-05-11T19:14:27.135Z,16.7
2023-05-11T19:16:35.460Z,16.6
2023-05-11T19:18:42.996Z,16.6
2023-05-11T19:20:50.523Z,16.5
2023-05-11T19:22:58.078Z,16.4
2023-05-11T19:25:09.172Z,16.3
2023-05-11T19:27:17.425Z,16.3
2023-05-11T19:29:25.032Z,16.2
2023-05-11T19:31:32.563Z,16.2
2023-05-11T19:33:40.147Z,16.1
2023-05-11T19:35:47.675Z,16.1
2023-05-11T19:37:55.342Z,16
2023-05-11T19:40:26.330Z,15.9
2023-05-11T19:42:39.126Z,15.8
2023-05-11T19:44:49.562Z,15.6
2023-05-11T19:46:59.250Z,15.6
2023-05-11T19:49:06.976Z,15.5
2023-05-11T19:51:14.584Z,15.5
2023-05-11T19:53:22.239Z,15.4
2023-05-11T19:55:29.783Z,15.3
2023-05-11T19:57:38.926Z,15.3
2023-05-11T19:59:46.432Z,15.3
2023-05-11T20:01:53.946Z,15.2
2023-05-11T20:04:01.744Z,15.2
2023-05-11T20:06:09.331Z,15.1
2023-05-11T20:08:17.222Z,15.1
2023-05-11T20:10:24.720Z,15.1
2023-05-11T20:12:32.300Z,15.1
2023-05-11T20:14:42.096Z,15.1
2023-05-11T20:16:49.760Z,15.1
2023-05-11T20:18:58.886Z,15
2023-05-11T20:21:06.639Z,15
2023-05-11T20:23:14.135Z,15
2023-05-11T20:25:22.440Z,15
2023-05-11T20:27:30.119Z,15
2023-05-11T20:29:40.279Z,15
2023-05-11T20:31:49.239Z,15
2023-05-11T20:36:09.048Z,15
2023-05-11T20:38:17.556Z,15
2023-05-11T20:40:26.161Z,15
2023-05-11T20:42:33.658Z,15.1
2023-05-11T20:44:41.221Z,15.1
2023-05-11T20:46:50.066Z,15.2
2023-05-11T20:48:58.009Z,15.2
2023-05-11T20:51:05.522Z,15.3
2023-05-11T20:53:13.060Z,15.3
2023-05-11T20:55:21.036Z,15.4
2023-05-11T20:57:28.670Z,15.4
2023-05-11T21:01:48.170Z,15.5
2023-05-11T21:03:57.037Z,15.5
2023-05-11T21:06:06.001Z,15.5
2023-05-11T21:08:14.666Z,15.5
2023-05-11T21:10:22.379Z,15.6
2023-05-11T21:12:29.901Z,15.6
2023-05-11T21:14:37.399Z,15.6
2023-05-11T21:16:44.985Z,15.6
2023-05-11T21:18:54.295Z,15.7
2023-05-11T21:21:03.302Z,15.6
2023-05-11T21:23:10.777Z,15.6
2023-05-11T21:25:21.358Z,15.6
2023-05-11T21:27:28.872Z,15.6
2023-05-11T21:29:36.514Z,15.7
2023-05-11T21:31:44.073Z,15.7
2023-05-11T21:33:51.609Z,15.7
2023-05-11T21:35:59.419Z,15.7
2023-05-11T21:38:08.237Z,15.7
2023-05-11T21:40:16.095Z,15.7
2023-05-11T21:42:23.620Z,15.7
2023-05-11T21:44:31.148Z,15.7
2023-05-11T21:46:38.788Z,15.6
2023-05-11T21:48:46.782Z,15.6
2023-05-11T21:50:55.306Z,15.6
2023-05-11T21:53:02.821Z,15.6
2023-05-11T21:55:12.874Z,15.7
2023-05-11T21:57:20.924Z,15.6
2023-05-11T21:59:28.417Z,15.6
2023-05-11T22:01:35.983Z,15.6
2023-05-11T22:03:43.749Z,15.5
2023-05-11T22:05:51.441Z,15.5
2023-05-11T22:08:10.784Z,15.5
2023-05-11T22:10:37.252Z,15.4
2023-05-11T22:12:45.570Z,15.4
2023-05-11T22:14:53.086Z,15.3
2023-05-11T22:17:04.774Z,15.3
2023-05-11T22:19:18.704Z,15.2
2023-05-11T22:21:27.295Z,15.2
2023-05-11T22:23:35.848Z,15.2
2023-05-11T22:25:49.917Z,15.1
2023-05-11T22:28:02.459Z,15.1
2023-05-11T22:31:10.763Z,15.1
2023-05-11T22:32:37.794Z,15.1
2023-05-11T22:34:45.873Z,15.1
2023-05-11T22:36:56.953Z,15.1
2023-05-11T22:39:05.736Z,15
2023-05-11T22:41:14.713Z,15
2023-05-11T22:43:25.919Z,15
2023-05-11T22:45:33.750Z,15
2023-05-11T22:47:41.604Z,14.9
2023-05-11T22:49:49.500Z,15
2023-05-11T22:51:59.241Z,15
2023-05-11T22:54:07.534Z,15
2023-05-11T22:56:16.996Z,15
2023-05-11T22:58:24.857Z,15
2023-05-11T23:00:32.456Z,14.9
2023-05-11T23:02:40.488Z,14.9
2023-05-11T23:04:51.470Z,14.9
2023-05-11T23:06:59.926Z,14.9
2023-05-11T23:09:08.651Z,15
2023-05-11T23:11:17.586Z,15
2023-05-11T23:13:25.241Z,15
2023-05-11T23:15:32.839Z,15
2023-05-11T23:17:40.769Z,15
2023-05-11T23:19:48.638Z,15
2023-05-11T23:21:56.304Z,15
2023-05-11T23:24:04.529Z,14.9
2023-05-11T23:26:12.221Z,14.9
2023-05-11T23:28:21.241Z,14.9
2023-05-11T23:30:28.765Z,14.9
2023-05-11T23:32:36.612Z,14.9
2023-05-11T23:34:44.152Z,14.9
2023-05-11T23:36:51.930Z,14.9
2023-05-11T23:38:59.429Z,14.9
2023-05-11T23:41:07.710Z,14.9
2023-05-11T23:43:15.332Z,14.9
2023-05-11T23:45:24.893Z,14.9
2023-05-11T23:47:32.491Z,14.9
2023-05-11T23:49:40.685Z,14.9
2023-05-11T23:51:48.224Z,14.8
2023-05-11T23:53:55.690Z,14.8
2023-05-11T23:56:03.239Z,14.8
2023-05-11T23:58:10.759Z,14.8
